Time;durP1;ratioP1;P1;durP2;ratioP2;P2;SDS_P1;SDS_P2;PMS_P1;PMS_P2;Temp;Humidity;BMP_temperature;BMP_pressure;BME280_temperature;BME280_humidity;BME280_pressure;Samples;Min_cycle;Max_cycle;Signal;HPM_P1;HPM_P2
2023/02/22 00:00:51;;;;;;;11.07;5.40;;;;;;;4.64;100.00;96181.91;6235901;23;20012;-86
2023/02/22 00:03:27;;;;;;;11.70;6.57;;;;;;;4.69;100.00;96186.75;6249511;23;20494;-86
2023/02/22 00:05:57;;;;;;;10.50;5.53;;;;;;;4.62;100.00;96181.19;6200343;23;20042;-86
2023/02/22 00:08:29;;;;;;;11.97;6.10;;;;;;;4.59;100.00;96180.63;6255124;23;20008;-86
2023/02/22 00:10:59;;;;;;;9.83;6.07;;;;;;;4.55;100.00;96184.44;6233622;23;20088;-86
2023/02/22 00:13:28;;;;;;;14.00;7.90;;;;;;;4.56;100.00;96191.28;6234288;23;20012;-86
2023/02/22 00:16:00;;;;;;;12.20;6.63;;;;;;;4.49;100.00;96183.13;6238091;23;20014;-86
2023/02/22 00:18:28;;;;;;;11.50;7.00;;;;;;;4.53;100.00;96186.31;6232417;23;20012;-86
2023/02/22 00:20:58;;;;;;;11.73;7.10;;;;;;;4.45;100.00;96179.94;6264600;22;20008;-86
2023/02/22 00:23:27;;;;;;;12.80;6.93;;;;;;;4.32;100.00;96181.88;6213605;23;20010;-86
2023/02/22 00:25:57;;;;;;;11.07;7.07;;;;;;;4.33;100.00;96178.34;6261926;23;20011;-86
2023/02/22 00:28:29;;;;;;;13.80;7.80;;;;;;;4.36;100.00;96175.50;6204565;23;20020;-86
2023/02/22 00:31:04;;;;;;;11.57;6.37;;;;;;;4.34;100.00;96171.34;6231380;23;20007;-86
2023/02/22 00:33:31;;;;;;;11.53;7.13;;;;;;;4.35;100.00;96167.78;6208197;23;20007;-86
2023/02/22 00:35:58;;;;;;;11.23;6.77;;;;;;;4.27;100.00;96171.03;6230502;23;20004;-86
2023/02/22 00:38:30;;;;;;;13.30;6.37;;;;;;;4.28;100.00;96166.63;6207106;23;20015;-87
2023/02/22 00:40:55;;;;;;;11.50;6.47;;;;;;;4.30;100.00;96168.19;6202095;23;20435;-86
2023/02/22 00:43:23;;;;;;;13.23;6.57;;;;;;;4.30;100.00;96164.75;6224022;23;20135;-87
2023/02/22 00:45:50;;;;;;;16.10;7.00;;;;;;;4.23;100.00;96160.03;6255403;23;20004;-86
2023/02/22 00:48:20;;;;;;;13.63;6.63;;;;;;;4.27;100.00;96160.59;6205001;23;20443;-86
2023/02/22 00:50:47;;;;;;;10.87;6.10;;;;;;;4.21;100.00;96161.09;6230416;23;20008;-86
2023/02/22 00:53:15;;;;;;;12.27;6.17;;;;;;;4.14;100.00;96154.72;6229077;23;20020;-86
2023/02/22 00:55:40;;;;;;;13.07;5.97;;;;;;;4.11;100.00;96157.56;6229402;23;20503;-86
2023/02/22 00:58:07;;;;;;;11.60;6.70;;;;;;;3.99;100.00;96157.59;6256192;23;20103;-88
2023/02/22 01:00:40;;;;;;;10.07;5.93;;;;;;;3.94;100.00;96159.72;6251526;23;20046;-87
2023/02/22 01:03:14;;;;;;;10.67;5.73;;;;;;;3.94;100.00;96164.09;6199813;23;20032;-87
2023/02/22 01:05:41;;;;;;;10.30;5.97;;;;;;;3.93;100.00;96158.06;6224183;23;20422;-88
2023/02/22 01:08:09;;;;;;;11.43;5.53;;;;;;;3.94;100.00;96151.91;6198737;23;20020;-88
2023/02/22 01:10:37;;;;;;;11.60;6.23;;;;;;;3.86;100.00;96146.50;6230255;23;20022;-85
2023/02/22 01:13:07;;;;;;;10.23;6.17;;;;;;;3.82;100.00;96157.25;6233268;23;20012;-87
2023/02/22 01:15:35;;;;;;;8.53;5.37;;;;;;;3.85;100.00;96150.03;6204070;23;20020;-86
2023/02/22 01:18:04;;;;;;;10.17;5.97;;;;;;;3.88;100.00;96152.38;6204421;23;20043;-86
2023/02/22 01:20:30;;;;;;;13.73;5.53;;;;;;;3.88;100.00;96148.97;6255744;23;20012;-86
2023/02/22 01:23:06;;;;;;;9.17;5.63;;;;;;;3.97;100.00;96143.88;6254103;23;19996;-86
2023/02/22 01:25:36;;;;;;;11.57;6.17;;;;;;;3.97;100.00;96143.88;6203289;23;20046;-86
2023/02/22 01:28:07;;;;;;;9.17;6.17;;;;;;;3.96;100.00;96137.00;6234532;23;20016;-86
2023/02/22 01:30:35;;;;;;;11.13;6.50;;;;;;;3.98;100.00;96135.09;6188819;23;20415;-86
2023/02/22 01:33:14;;;;;;;11.80;6.63;;;;;;;4.00;100.00;96135.00;6240095;23;20405;-85
2023/02/22 01:35:41;;;;;;;8.73;5.57;;;;;;;3.99;100.00;96131.56;6241500;23;20012;-85
2023/02/22 01:38:09;;;;;;;9.67;5.93;;;;;;;3.99;100.00;96131.56;6214097;23;20016;-86
2023/02/22 01:40:41;;;;;;;11.43;5.53;;;;;;;3.99;100.00;96135.91;6214556;23;20007;-86
2023/02/22 01:43:24;;;;;;;8.30;5.10;;;;;;;4.01;100.00;96131.44;6238760;23;20443;-87
2023/02/22 01:46:17;;;;;;;10.57;5.23;;;;;;;3.98;100.00;96131.69;6214784;23;20044;-86
2023/02/22 01:48:55;;;;;;;9.77;5.50;;;;;;;3.99;100.00;96128.97;6214650;23;20451;-86
2023/02/22 01:51:29;;;;;;;10.10;4.50;;;;;;;3.99;100.00;96128.97;6190561;23;20008;-86
2023/02/22 01:54:07;;;;;;;9.40;5.00;;;;;;;3.92;100.00;96127.81;6214129;23;20088;-87
2023/02/22 01:56:37;;;;;;;10.60;5.00;;;;;;;3.94;100.00;96130.28;6214040;23;20016;-86
2023/02/22 01:59:09;;;;;;;9.37;4.97;;;;;;;3.93;100.00;96126.84;6213358;23;20023;-86
2023/02/22 02:01:43;;;;;;;9.77;5.00;;;;;;;3.91;100.00;96120.09;6188207;23;20995;-86
2023/02/22 02:04:14;;;;;;;9.73;4.83;;;;;;;3.87;100.00;96121.31;6214955;23;20081;-86
2023/02/22 02:06:44;;;;;;;8.97;5.63;;;;;;;3.85;100.00;96116.19;6188031;23;20012;-86
2023/02/22 02:09:10;;;;;;;9.93;5.47;;;;;;;3.74;100.00;96116.22;6213226;23;20819;-86
2023/02/22 02:11:41;;;;;;;10.40;5.40;;;;;;;3.68;100.00;96112.31;6210984;23;20044;-86
2023/02/22 02:14:09;;;;;;;11.13;5.60;;;;;;;3.68;100.00;96122.72;6212610;23;20016;-86
2023/02/22 02:16:50;;;;;;;8.40;5.00;;;;;;;3.64;100.00;96115.28;6214821;23;20458;-86
2023/02/22 02:19:53;;;;;;;10.87;5.47;;;;;;;3.67;100.00;96115.06;6214727;23;20024;-86
2023/02/22 02:22:41;;;;;;;13.60;5.77;;;;;;;3.69;100.00;96116.59;6214246;23;20012;-86
2023/02/22 02:25:26;;;;;;;10.20;4.80;;;;;;;3.72;100.00;96112.91;6214884;23;20090;-86
2023/02/22 02:28:24;;;;;;;11.50;5.13;;;;;;;3.70;100.00;96114.81;6213656;23;20040;-86
2023/02/22 02:30:56;;;;;;;10.27;4.73;;;;;;;3.75;100.00;96112.66;6213007;23;20008;-86
2023/02/22 02:33:47;;;;;;;9.63;5.33;;;;;;;3.70;100.00;96104.41;6214213;23;21041;-86
2023/02/22 02:36:27;;;;;;;10.70;5.13;;;;;;;3.68;100.00;96106.28;6215078;23;20713;-86
2023/02/22 02:39:02;;;;;;;12.53;4.80;;;;;;;3.69;100.00;96097.53;6216020;23;20011;-86
2023/02/22 02:41:35;;;;;;;11.50;5.23;;;;;;;3.68;100.00;96093.28;6214788;23;20431;-86
2023/02/22 02:44:12;;;;;;;11.43;5.45;;;;;;;3.64;100.00;96095.31;6216573;23;20504;-86
2023/02/22 02:47:07;;;;;;;10.80;5.07;;;;;;;3.69;100.00;96087.13;6215939;23;20130;-86
2023/02/22 02:49:41;;;;;;;11.43;5.80;;;;;;;3.72;100.00;96084.31;6212574;23;20447;-86
2023/02/22 02:52:09;;;;;;;13.23;6.13;;;;;;;3.80;100.00;96079.34;6242307;23;20403;-86
2023/02/22 02:54:38;;;;;;;11.23;6.47;;;;;;;3.81;100.00;96075.78;6243750;23;20008;-86
2023/02/22 02:57:04;;;;;;;9.60;6.20;;;;;;;3.77;100.00;96077.78;6215985;23;20062;-86
2023/02/22 02:59:33;;;;;;;9.97;6.33;;;;;;;3.85;100.00;96076.34;6241471;23;20004;-86
2023/02/22 03:02:24;;;;;;;11.37;6.07;;;;;;;3.84;100.00;96072.13;6216795;23;20074;-86
2023/02/22 03:05:27;;;;;;;10.33;6.33;;;;;;;3.86;100.00;96060.66;6245034;23;20012;-87
2023/02/22 03:08:14;;;;;;;12.47;6.90;;;;;;;3.90;100.00;96059.44;6220021;23;20016;-86
2023/02/22 03:11:00;;;;;;;11.30;6.53;;;;;;;3.81;100.00;96051.53;6218140;23;20815;-86
2023/02/22 03:13:39;;;;;;;9.80;5.90;;;;;;;3.77;100.00;96059.59;6244012;23;20019;-86
2023/02/22 03:16:32;;;;;;;11.90;6.90;;;;;;;3.79;100.00;96051.69;6218751;23;20016;-86
2023/02/22 03:19:15;;;;;;;11.43;5.90;;;;;;;3.81;100.00;96049.78;6219357;23;20023;-87
2023/02/22 03:22:03;;;;;;;10.05;6.93;;;;;;;3.74;100.00;96054.63;6219297;23;20442;-87
2023/02/22 03:24:36;;;;;;;9.23;6.00;;;;;;;3.74;100.00;96054.63;6219564;23;20012;-86
2023/02/22 03:27:49;;;;;;;22.67;9.20;;;;;;;3.69;100.00;96046.38;6243711;23;20435;-86
2023/02/22 03:30:36;;;;;;;10.57;6.00;;;;;;;3.74;100.00;96046.00;6205085;23;20432;-86
2023/02/22 03:33:19;;;;;;;10.23;6.50;;;;;;;3.77;100.00;96040.56;6193334;23;20430;-87
2023/02/22 03:35:55;;;;;;;9.95;6.40;;;;;;;3.82;100.00;96040.19;6194840;23;20019;-86
2023/02/22 03:38:24;;;;;;;9.63;5.50;;;;;;;3.89;100.00;96037.00;6218975;23;20015;-86
2023/02/22 03:40:53;;;;;;;9.53;5.80;;;;;;;3.84;100.00;96038.31;6218972;23;20013;-86
2023/02/22 03:43:31;;;;;;;9.90;5.93;;;;;;;3.80;100.00;96027.31;6217942;23;20019;-86
2023/02/22 03:46:02;;;;;;;11.90;6.40;;;;;;;3.97;100.00;96024.19;6218580;23;20405;-86
2023/02/22 03:48:44;;;;;;;10.03;6.10;;;;;;;4.26;100.00;96023.59;6219617;23;20027;-86
2023/02/22 03:51:15;;;;;;;10.83;6.00;;;;;;;4.31;100.00;96026.66;6193363;23;20428;-86
2023/02/22 03:53:46;;;;;;;11.00;6.30;;;;;;;4.45;100.00;96031.53;6219339;23;20570;-86
2023/02/22 03:56:19;;;;;;;11.63;6.13;;;;;;;4.49;100.00;96032.09;6220631;23;20030;-86
2023/02/22 03:58:47;;;;;;;10.83;6.23;;;;;;;4.35;100.00;96022.00;6223033;23;20349;-86
2023/02/22 04:01:12;;;;;;;11.53;5.77;;;;;;;4.23;100.00;96024.69;6219091;23;20099;-87
2023/02/22 04:03:41;;;;;;;9.73;5.67;;;;;;;4.19;100.00;96022.44;6221308;23;20019;-86
2023/02/22 04:06:08;;;;;;;9.87;6.00;;;;;;;4.21;100.00;96028.34;6258060;23;20020;-87
2023/02/22 04:08:34;;;;;;;10.40;6.00;;;;;;;4.18;100.00;96020.78;6206679;23;20369;-86
2023/02/22 04:11:02;;;;;;;13.30;6.27;;;;;;;4.17;100.00;96026.94;6214511;23;20387;-87
2023/02/22 04:13:29;;;;;;;9.30;5.77;;;;;;;4.16;100.00;96026.13;6242369;23;20101;-86
2023/02/22 04:16:00;;;;;;;10.17;6.90;;;;;;;4.13;100.00;96028.16;6241185;23;20416;-87
2023/02/22 04:18:26;;;;;;;10.07;5.63;;;;;;;4.16;100.00;96030.50;6241501;23;20012;-86
2023/02/22 04:20:52;;;;;;;12.37;6.03;;;;;;;4.16;100.00;96033.13;6216375;23;20023;-86
2023/02/22 04:23:29;;;;;;;12.50;6.13;;;;;;;4.11;100.00;96028.25;6218481;23;20016;-86
2023/02/22 04:25:56;;;;;;;11.43;6.43;;;;;;;4.14;100.00;96024.59;6241209;23;20012;-87
2023/02/22 04:28:22;;;;;;;9.80;5.73;;;;;;;4.17;100.00;96025.16;6241007;23;20380;-86
2023/02/22 04:31:15;;;;;;;9.67;6.27;;;;;;;4.18;100.00;96028.59;6256081;22;20348;-86
2023/02/22 04:33:42;;;;;;;9.83;5.63;;;;;;;4.21;100.00;96023.97;6215666;23;20313;-86
2023/02/22 04:36:10;;;;;;;13.03;5.53;;;;;;;4.25;100.00;96032.34;6200589;23;20004;-86
2023/02/22 04:38:36;;;;;;;10.60;6.00;;;;;;;4.26;100.00;96028.81;6241231;23;20016;-86
2023/02/22 04:41:02;;;;;;;11.60;5.43;;;;;;;4.29;100.00;96023.31;6215356;23;20123;-87
2023/02/22 04:43:34;;;;;;;9.87;5.57;;;;;;;4.27;100.00;96030.44;6216591;23;20696;-86
2023/02/22 04:46:14;;;;;;;10.27;5.47;;;;;;;4.26;100.00;96021.00;6240749;23;20012;-87
2023/02/22 04:48:43;;;;;;;10.27;6.13;;;;;;;4.24;100.00;96023.72;6193120;23;20016;-86
2023/02/22 04:51:09;;;;;;;16.00;6.10;;;;;;;4.51;100.00;96022.41;6217386;23;20000;-86
2023/02/22 04:53:37;;;;;;;9.87;5.80;;;;;;;4.66;100.00;96015.94;6251654;23;20016;-86
2023/02/22 04:56:04;;;;;;;9.90;5.97;;;;;;;5.00;100.00;96010.47;6240955;22;20004;-86
2023/02/22 04:58:30;;;;;;;9.90;5.83;;;;;;;5.16;100.00;96003.00;6239153;22;20014;-86
2023/02/22 05:00:56;;;;;;;14.37;6.07;;;;;;;5.15;100.00;96001.34;6238056;23;20015;-85
2023/02/22 05:03:23;;;;;;;11.67;6.23;;;;;;;5.30;100.00;96007.03;6222263;23;20326;-87
2023/02/22 05:05:50;;;;;;;11.13;6.97;;;;;;;5.36;100.00;96003.88;6223422;23;20011;-86
2023/02/22 05:08:16;;;;;;;10.17;6.53;;;;;;;5.44;100.00;95996.22;6246630;23;20096;-86
2023/02/22 05:10:42;;;;;;;12.73;7.53;;;;;;;5.51;100.00;95996.50;6218871;23;20012;-86
2023/02/22 05:13:25;;;;;;;12.50;7.13;;;;;;;5.66;100.00;95996.94;6243157;23;20012;-86
2023/02/22 05:15:51;;;;;;;12.43;7.50;;;;;;;5.63;100.00;95992.84;6241791;23;20023;-86
2023/02/22 05:18:16;;;;;;;13.23;6.10;;;;;;;5.74;100.00;95989.28;6216901;23;20420;-86
2023/02/22 05:20:42;;;;;;;11.90;6.27;;;;;;;5.76;100.00;95989.97;6216885;23;20063;-86
2023/02/22 05:23:08;;;;;;;10.97;6.27;;;;;;;5.81;100.00;95989.56;6242100;23;20015;-86
2023/02/22 05:25:34;;;;;;;10.13;5.73;;;;;;;5.85;100.00;95981.31;6214595;23;20393;-86
2023/02/22 05:28:07;;;;;;;12.43;6.50;;;;;;;5.85;100.00;95983.13;6214919;23;20000;-86
2023/02/22 05:30:34;;;;;;;13.73;6.75;;;;;;;5.84;100.00;95982.28;6220283;23;20012;-86
2023/02/22 05:33:00;;;;;;;14.07;6.57;;;;;;;5.81;100.00;95979.94;6227125;23;20055;-87
2023/02/22 05:35:28;;;;;;;13.00;6.97;;;;;;;5.89;100.00;95979.25;6238100;22;20015;-89
2023/02/22 05:38:00;;;;;;;10.13;5.63;;;;;;;5.73;100.00;95973.75;6227686;23;20302;-85
2023/02/22 05:40:34;;;;;;;17.87;12.00;;;;;;;5.76;100.00;95979.53;6250473;23;20103;-88
2023/02/22 05:43:04;;;;;;;30.25;18.52;;;;;;;5.64;100.00;95976.22;6223423;23;20008;-88
2023/02/22 05:45:32;;;;;;;25.97;14.63;;;;;;;5.53;100.00;95984.16;6226039;23;20019;-88
2023/02/22 05:47:58;;;;;;;24.23;13.30;;;;;;;5.53;100.00;95981.53;6221713;23;20016;-88
2023/02/22 05:50:32;;;;;;;21.90;12.80;;;;;;;5.55;100.00;95977.03;6226456;23;20015;-89
2023/02/22 05:53:01;;;;;;;;;;;;;;;5.74;100.00;95978.03;6251279;23;20343;-93
2023/02/22 05:55:34;;;;;;;14.80;8.23;;;;;;;5.84;100.00;95978.88;6227098;23;19914;-88
2023/02/22 05:58:04;;;;;;;13.00;7.80;;;;;;;5.83;100.00;95974.59;6250661;23;20023;-88
2023/02/22 06:00:31;;;;;;;16.43;7.83;;;;;;;5.84;100.00;95971.03;6193780;23;20448;-88
2023/02/22 06:03:07;;;;;;;13.27;8.33;;;;;;;5.77;100.00;95965.53;6200819;23;20099;-88
2023/02/22 06:05:36;;;;;;;11.13;7.20;;;;;;;5.81;100.00;95972.13;6201984;23;20012;-88
2023/02/22 06:08:04;;;;;;;12.47;7.87;;;;;;;5.86;100.00;95969.91;6228797;23;20035;-88
2023/02/22 06:10:30;;;;;;;17.10;8.77;;;;;;;5.84;100.00;95960.59;6224762;23;20000;-87
2023/02/22 06:12:57;;;;;;;13.67;8.33;;;;;;;5.83;100.00;95967.56;6226174;23;20072;-88
2023/02/22 06:15:25;;;;;;;14.70;8.83;;;;;;;5.82;100.00;95962.50;6225270;23;20039;-88
2023/02/22 06:18:06;;;;;;;12.53;7.53;;;;;;;5.82;100.00;95960.72;6200532;23;20091;-88
2023/02/22 06:20:38;;;;;;;17.33;8.67;;;;;;;5.90;100.00;95960.03;6250622;23;20020;-88
2023/02/22 06:23:04;;;;;;;14.63;8.13;;;;;;;5.89;100.00;95956.59;6229343;23;20043;-88
2023/02/22 06:25:31;;;;;;;15.53;8.47;;;;;;;6.05;100.00;95960.47;6258257;23;20011;-89
2023/02/22 06:27:57;;;;;;;16.83;9.27;;;;;;;6.01;100.00;95959.94;6177900;23;20012;-88
2023/02/22 06:30:25;;;;;;;18.30;10.07;;;;;;;6.13;100.00;95961.41;6199921;23;20023;-88
2023/02/22 06:32:53;;;;;;;16.93;10.23;;;;;;;6.13;100.00;95958.00;6192864;23;20012;-89
2023/02/22 06:35:19;;;;;;;17.13;9.63;;;;;;;6.20;100.00;95961.69;6202238;23;20016;-88
2023/02/22 06:37:48;;;;;;;13.33;8.33;;;;;;;6.25;100.00;95961.28;6219218;23;20040;-88
2023/02/22 06:40:14;;;;;;;15.60;9.83;;;;;;;6.42;100.00;95960.59;6222234;23;20012;-88
2023/02/22 06:42:40;;;;;;;17.57;9.67;;;;;;;6.53;100.00;95959.59;6217462;23;20018;-89
2023/02/22 06:45:07;;;;;;;17.83;10.10;;;;;;;6.68;100.00;95962.59;6223091;23;20587;-89
2023/02/22 06:47:36;;;;;;;14.13;9.73;;;;;;;6.63;100.00;95959.56;6217747;23;20030;-89
2023/02/22 06:50:02;;;;;;;14.07;9.33;;;;;;;6.81;100.00;95960.50;6219261;23;20020;-89
2023/02/22 06:52:28;;;;;;;17.67;10.50;;;;;;;6.93;100.00;95959.34;6217344;23;20534;-90
2023/02/22 06:54:53;;;;;;;15.70;9.40;;;;;;;7.00;100.00;95955.19;6220713;23;20020;-91
2023/02/22 06:57:24;;;;;;;17.27;10.30;;;;;;;7.08;100.00;95957.91;6246861;23;20062;-90
2023/02/22 06:59:54;;;;;;;16.13;9.50;;;;;;;7.37;100.00;95959.53;6196835;23;20016;-91
2023/02/22 07:02:19;;;;;;;22.07;11.63;;;;;;;7.51;100.00;95958.22;6247620;23;20452;-90
2023/02/22 07:04:50;;;;;;;17.20;8.70;;;;;;;7.60;100.00;95959.16;6221894;23;20023;-91
2023/02/22 07:07:17;;;;;;;14.50;8.20;;;;;;;7.77;100.00;95955.72;6194554;23;20428;-90
2023/02/22 07:09:45;;;;;;;14.17;8.20;;;;;;;7.80;100.00;95953.63;6243621;23;20028;-90
2023/02/22 07:12:11;;;;;;;14.43;8.67;;;;;;;7.65;100.00;95960.34;6217530;23;20046;-91
2023/02/22 07:14:37;;;;;;;14.80;8.80;;;;;;;7.80;100.00;95955.44;6218589;23;20046;-91
2023/02/22 07:17:02;;;;;;;13.93;8.57;;;;;;;7.80;100.00;95955.44;6217522;23;20042;-90
2023/02/22 07:19:28;;;;;;;11.83;7.53;;;;;;;7.91;100.00;95964.84;6221783;23;20011;-91
2023/02/22 07:21:57;;;;;;;15.50;8.67;;;;;;;8.04;100.00;95957.44;6247273;23;20008;-90
2023/02/22 07:24:34;;;;;;;10.90;7.27;;;;;;;8.22;100.00;95960.06;6223849;23;20071;-90
2023/02/22 07:27:01;;;;;;;14.00;8.13;;;;;;;8.23;100.00;95953.84;6221555;23;20023;-91
2023/02/22 07:29:27;;;;;;;13.57;8.20;;;;;;;8.47;100.00;95951.44;6222775;23;20020;-91
2023/02/22 07:31:52;;;;;;;12.70;8.40;;;;;;;8.54;100.00;95945.59;6246793;23;20012;-88
2023/02/22 07:34:18;;;;;;;12.27;8.10;;;;;;;8.62;100.00;95943.03;6220302;23;20035;-89
2023/02/22 07:36:44;;;;;;;13.03;8.03;;;;;;;8.83;100.00;95953.16;6244075;23;20027;-88
2023/02/22 07:39:14;;;;;;;13.53;7.93;;;;;;;8.85;100.00;95949.41;6248355;23;20012;-88
2023/02/22 07:41:42;;;;;;;14.20;7.40;;;;;;;8.92;100.00;95945.19;6243543;23;20012;-88
2023/02/22 07:44:21;;;;;;;11.97;7.40;;;;;;;9.27;100.00;95937.28;6225941;23;20079;-90
2023/02/22 07:47:01;;;;;;;12.40;8.00;;;;;;;9.47;100.00;95943.09;6197792;23;20016;-88
2023/02/22 07:49:27;;;;;;;13.97;8.23;;;;;;;9.41;100.00;95940.13;6256947;23;20022;-90
2023/02/22 07:51:53;;;;;;;15.77;9.07;;;;;;;9.14;100.00;95945.59;6233144;23;20071;-91
2023/02/22 07:54:19;;;;;;;12.50;7.57;;;;;;;9.01;100.00;95943.41;6249765;23;20012;-91
2023/02/22 07:56:55;;;;;;;13.10;8.17;;;;;;;9.16;100.00;95936.59;6246743;23;20042;-91
2023/02/22 07:59:21;;;;;;;13.27;8.70;;;;;;;9.56;100.00;95929.84;6252457;23;20016;-90
2023/02/22 08:01:49;;;;;;;13.40;8.37;;;;;;;9.71;100.00;95929.22;6269033;22;20000;-91
2023/02/22 08:04:15;;;;;;;12.20;7.13;;;;;;;10.08;100.00;95931.41;6269128;22;20020;-90
2023/02/22 08:06:40;;;;;;;14.67;8.57;;;;;;;10.02;100.00;95929.41;6266784;22;20027;-91
2023/02/22 08:09:10;;;;;;;11.13;7.03;;;;;;;10.41;100.00;95915.66;6228978;22;20016;-91
2023/02/22 08:11:36;;;;;;;13.23;7.83;;;;;;;10.60;100.00;95921.38;6247172;23;20008;-91
2023/02/22 08:14:01;;;;;;;15.37;7.27;;;;;;;10.79;100.00;95922.81;6244942;23;20004;-90
2023/02/22 08:16:27;;;;;;;15.60;7.97;;;;;;;10.89;100.00;95912.09;6224459;23;20016;-90
2023/02/22 08:18:54;;;;;;;12.20;6.63;;;;;;;11.24;100.00;95910.03;6220050;23;20035;-90
2023/02/22 08:21:23;;;;;;;13.73;7.13;;;;;;;10.93;100.00;95904.69;6218747;23;20019;-90
2023/02/22 08:23:54;;;;;;;18.53;7.20;;;;;;;11.18;100.00;95911.50;6222051;23;20008;-90
2023/02/22 08:26:20;;;;;;;13.43;7.57;;;;;;;11.64;100.00;95905.53;6244379;23;20016;-91
2023/02/22 08:28:47;;;;;;;10.77;6.47;;;;;;;11.94;100.00;95912.63;6243846;23;20081;-90
2023/02/22 08:31:13;;;;;;;11.87;6.87;;;;;;;12.39;100.00;95912.75;6217767;23;20069;-91
2023/02/22 08:33:40;;;;;;;12.50;6.87;;;;;;;12.60;100.00;95912.88;6218124;23;20016;-91
2023/02/22 08:36:06;;;;;;;12.23;6.43;;;;;;;12.52;100.00;95905.06;6243054;23;20019;-91
2023/02/22 08:38:32;;;;;;;10.53;6.67;;;;;;;11.98;100.00;95906.00;6217837;23;20008;-90
2023/02/22 08:40:58;;;;;;;11.33;6.00;;;;;;;11.63;100.00;95909.97;6242191;22;20016;-91
2023/02/22 08:43:29;;;;;;;9.47;5.90;;;;;;;12.14;100.00;95904.22;6243257;23;20039;-91
2023/02/22 08:45:54;;;;;;;10.03;5.53;;;;;;;12.47;100.00;95905.59;6244034;23;20512;-92
2023/02/22 08:48:20;;;;;;;15.30;7.87;;;;;;;12.97;100.00;95900.63;6243697;23;20012;-91
2023/02/22 08:50:46;;;;;;;13.93;7.13;;;;;;;13.16;100.00;95901.91;6243802;23;20039;-91
2023/02/22 08:53:17;;;;;;;14.40;6.40;;;;;;;13.66;100.00;95902.94;6218627;23;20321;-91
2023/02/22 08:55:45;;;;;;;8.97;5.77;;;;;;;14.30;100.00;95892.38;6218220;23;20026;-91
2023/02/22 08:58:13;;;;;;;11.67;5.40;;;;;;;14.46;100.00;95899.25;6244530;23;20016;-91
2023/02/22 09:00:39;;;;;;;8.13;4.50;;;;;;;14.27;100.00;95897.25;6205266;23;20023;-91
2023/02/22 09:03:08;;;;;;;9.23;4.67;;;;;;;15.26;100.00;95890.00;6220244;23;20016;-91
2023/02/22 09:05:34;;;;;;;10.17;4.53;;;;;;;14.66;100.00;95899.44;6194988;23;20344;-91
2023/02/22 09:08:02;;;;;;;7.43;3.73;;;;;;;14.69;100.00;95891.09;6219177;23;20015;-91
2023/02/22 09:10:30;;;;;;;9.57;4.07;;;;;;;14.75;100.00;95892.94;6219919;23;20007;-91
2023/02/22 09:12:59;;;;;;;7.07;4.20;;;;;;;14.63;100.00;95897.16;6229390;23;20038;-91
2023/02/22 09:15:26;;;;;;;10.90;4.03;;;;;;;14.89;100.00;95890.38;6233356;23;20019;-91
2023/02/22 09:17:52;;;;;;;6.47;3.80;;;;;;;15.60;100.00;95887.50;6206902;23;20012;-91
2023/02/22 09:20:21;;;;;;;6.10;3.50;;;;;;;14.99;100.00;95885.56;6203066;23;20015;-91
2023/02/22 09:22:48;;;;;;;7.33;3.80;;;;;;;15.45;100.00;95893.72;6187548;23;20036;-91
2023/02/22 09:25:14;;;;;;;7.10;3.67;;;;;;;14.71;100.00;95891.72;6171347;23;20272;-91
2023/02/22 09:27:42;;;;;;;7.20;3.40;;;;;;;15.06;100.00;95891.75;6204850;23;20007;-90
2023/02/22 09:33:31;;;;;;;7.57;3.13;;;;;;;15.07;100.00;95880.94;6243038;23;20011;-91
2023/02/22 09:35:59;;;;;;;6.73;3.47;;;;;;;15.99;100.00;95882.28;6221939;23;20404;-91
2023/02/22 09:38:25;;;;;;;6.90;3.17;;;;;;;14.93;100.00;95881.88;6251025;23;20019;-90
2023/02/22 09:41:11;;;;;;;5.87;2.77;;;;;;;15.55;100.00;95885.41;6246704;23;20014;-90
2023/02/22 09:43:52;;;;;;;5.95;2.70;;;;;;;15.79;100.00;95879.63;6220481;23;20018;-91
2023/02/22 09:46:28;;;;;;;8.73;3.40;;;;;;;15.39;100.00;95875.16;6244271;23;20012;-91
2023/02/22 09:49:01;;;;;;;5.87;2.90;;;;;;;16.19;100.00;95879.66;6221205;23;20070;-90
2023/02/22 09:51:36;;;;;;;15.27;3.03;;;;;;;16.81;96.13;95866.22;6200979;23;20012;-90
2023/02/22 09:54:09;;;;;;;12.82;3.05;;;;;;;17.47;91.23;95857.19;6223489;23;20459;-91
2023/02/22 09:56:36;;;;;;;6.88;2.20;;;;;;;17.04;88.65;95858.59;6209866;23;20016;-90
2023/02/22 09:59:06;;;;;;;8.15;2.47;;;;;;;16.77;88.02;95867.63;6221700;23;20020;-88
2023/02/22 10:02:18;;;;;;;5.45;2.50;;;;;;;17.24;84.32;95857.72;6245951;23;20019;-88
2023/02/22 10:04:56;;;;;;;4.15;2.08;;;;;;;17.00;81.04;95865.38;6156835;23;20018;-89
2023/02/22 10:07:25;;;;;;;6.28;1.92;;;;;;;17.71;80.28;95859.16;6219698;23;20432;-89
2023/02/22 10:09:55;;;;;;;5.38;2.38;;;;;;;16.89;85.00;95871.28;6244071;23;20012;-89
2023/02/22 10:12:42;;;;;;;3.63;1.85;;;;;;;16.39;86.87;95869.06;6219272;23;20011;-88
2023/02/22 10:15:33;;;;;;;4.50;1.95;;;;;;;16.22;85.12;95871.31;6241973;23;20090;-89
2023/02/22 10:18:26;;;;;;;4.93;1.88;;;;;;;16.08;87.33;95874.16;6215737;23;20019;-89
2023/02/22 10:21:35;;;;;;;4.40;1.90;;;;;;;16.42;85.15;95870.50;6216844;23;20024;-89
2023/02/22 10:24:44;;;;;;;2.92;1.50;;;;;;;16.63;86.02;95872.13;6242293;23;20019;-89
2023/02/22 10:27:27;;;;;;;7.32;2.05;;;;;;;16.11;91.05;95869.25;6176017;23;20551;-89
2023/02/22 10:30:05;;;;;;;3.63;1.35;;;;;;;17.17;83.74;95865.72;6216621;23;20047;-89
2023/02/22 10:33:04;;;;;;;3.38;1.48;;;;;;;16.70;83.64;95867.63;6217113;23;20012;-89
2023/02/22 10:35:35;;;;;;;8.32;1.73;;;;;;;16.55;81.60;95867.03;6217216;23;20008;-88
2023/02/22 10:38:28;;;;;;;5.10;1.52;;;;;;;16.84;80.15;95863.16;6242300;23;20510;-89
2023/02/22 10:41:09;;;;;;;2.57;1.27;;;;;;;16.32;82.61;95867.44;6247006;23;20004;-89
2023/02/22 10:43:43;;;;;;;3.47;1.30;;;;;;;16.46;80.03;95861.09;6217551;23;20438;-89
2023/02/22 10:46:19;;;;;;;;;;;;;;;15.88;81.42;95866.16;6218175;23;20043;-88
2023/02/22 10:48:50;;;;;;;3.28;1.40;;;;;;;16.39;80.53;95863.75;6217529;23;19907;-88
2023/02/22 10:51:16;;;;;;;3.80;1.52;;;;;;;16.83;75.20;95850.88;6216990;23;20046;-89
2023/02/22 10:53:52;;;;;;;2.58;1.23;;;;;;;17.45;71.62;95849.47;6217778;23;20074;-91
2023/02/22 10:56:20;;;;;;;3.85;1.17;;;;;;;17.85;68.80;95847.44;6219460;23;20436;-91
2023/02/22 10:59:06;;;;;;;2.25;1.20;;;;;;;17.05;71.76;95854.91;6220982;23;20511;-91
2023/02/22 11:01:31;;;;;;;6.30;2.03;;;;;;;17.42;69.68;95844.56;6222060;23;20044;-91
2023/02/22 11:04:14;;;;;;;4.00;1.13;;;;;;;17.14;70.64;95840.38;6222477;23;20019;-91
2023/02/22 11:06:43;;;;;;;;;;;;;;;17.69;68.59;95839.91;6221953;23;20007;-91
2023/02/22 11:09:10;;;;;;;4.35;1.15;;;;;;;17.52;67.99;95839.59;6224393;23;19908;-92
2023/02/22 11:11:38;;;;;;;3.50;1.42;;;;;;;17.39;67.79;95839.66;6261241;22;20096;-92
2023/02/22 11:14:37;;;;;;;3.13;1.30;;;;;;;18.03;67.78;95830.72;6204634;23;20068;-92
2023/02/22 11:21:01;;;;;;;2.65;1.17;;;;;;;18.65;62.25;95832.69;6263290;23;20015;-96
2023/02/22 11:30:35;;;;;;;1.45;0.90;;;;;;;18.73;62.28;95824.44;6212666;23;20137;-88
2023/02/22 11:33:22;;;;;;;4.10;1.15;;;;;;;18.83;61.06;95814.09;6167958;22;20000;-88
2023/02/22 11:36:38;;;;;;;1.50;0.82;;;;;;;18.09;65.83;95813.09;6163376;23;20340;-88
2023/02/22 11:39:42;;;;;;;0.73;0.57;;;;;;;18.19;63.84;95807.28;6186776;23;20035;-88
2023/02/22 11:42:17;;;;;;;3.92;1.15;;;;;;;17.84;66.94;95805.06;6160974;23;20017;-88
2023/02/22 11:45:34;;;;;;;;;;;;;;;;;;;;;
2023/02/22 11:48:38;;;;;;;;;;;;;;;;;;;;;
2023/02/22 11:51:24;;;;;;;3.28;1.20;;;;;;;16.22;82.11;95812.94;6183768;23;20086;-88
2023/02/22 11:54:27;;;;;;;2.45;1.00;;;;;;;16.31;83.71;95792.31;6157957;23;20079;-87
2023/02/22 11:57:25;;;;;;;3.03;1.10;;;;;;;16.08;84.03;95799.88;6160212;23;20123;-88
2023/02/22 12:00:23;;;;;;;2.35;1.00;;;;;;;16.45;82.64;95791.28;6162297;23;20023;-88
2023/02/22 12:03:23;;;;;;;1.75;0.93;;;;;;;16.85;83.93;95782.44;6163707;23;20017;-88
2023/02/22 12:06:23;;;;;;;1.73;0.80;;;;;;;16.93;80.59;95777.72;6159718;23;20020;-88
2023/02/22 12:09:14;;;;;;;3.67;1.50;;;;;;;17.26;78.65;95770.63;6131726;23;20099;-88
2023/02/22 12:12:02;;;;;;;3.47;1.33;;;;;;;17.33;76.34;95766.09;6159497;23;20107;-88